Portada
METAR-TAF:

METAR-TAF

Aeroports :

Aeroport Internacional de Fujairah

Fujairah, Emirats Àrabs Units

latitud: 25-06N, longitud: 056-20E, altitud: 28 m

Observació

L'informe es va fer fa 15 minuts, a les 14:00 UTC
Vent 6 kt del Est/Sud-Est, variant entre Est/Nord-Est i Sud
Temperatura 37°C
Humitat 42%
Pressió 1000 hPa
Visibilitat: 7000 m

METAR: OMFJ 211400Z 11006KT 070V170 7000 NSC 37/22 Q1000 A2954

Hora: 18:15 (14:15 UTC)

Pronòstic

L'informe es va fer fa 3 hores i 15 minuts, a les 11:00 UTC
Pronòstic vàlid del 21 a les 12 UTC al 22 a les 18 UTC
Vent 7 kt del Est
Visibilitat: 7000 m
Evolucionant progressivament
l' 21 a les 14 UTC al 21 a les 16 UTC
Vent 3 kt amb direcció variable
Evolucionant progressivament
l' 22 a les 06 UTC al 22 a les 08 UTC
Vent 10 kt del Est

TAF: OMFJ 211100Z 2112/2218 10007KT 7000 NSC BECMG 2114/2116 VRB03KT BECMG 2206/2208 09010KT

Observacions i pronòstics meteorològics de més de 4000 aeroports (METAR i TAF).

Les estacions disponibles són els punts grocs i vermells al mapa.

Posi el ratolí al punt desitjat per veure el nom de l'estació.

Feu clic per veure les observacions i els pronòstics meteorològics.

Per canviar el mapa: feu clic els botons verds amb una creu de color negre per apropar; al botó verd amb un guió per allunyar la imatge; o en les fletxes verdes per a mapes adjacents.


METAR-TAF: